Time;durP1;ratioP1;P1;durP2;ratioP2;P2;SDS_P1;SDS_P2;PMS_P1;PMS_P2;Temp;Humidity;BMP_temperature;BMP_pressure;BME280_temperature;BME280_humidity;BME280_pressure;Samples;Min_cycle;Max_cycle;Signal;HPM_P1;HPM_P2
2023/12/09 00:02:10;;;;;;;25.90;15.00;;;;;;;5.45;100.00;100038.69;10391993;28;20858;-78
2023/12/09 00:07:13;;;;;;;28.35;13.40;;;;;;;5.33;100.00;100036.00;10393655;28;20076;-79
2023/12/09 00:12:17;;;;;;;29.80;14.88;;;;;;;5.41;100.00;100033.69;10373056;28;20045;-78
2023/12/09 00:17:21;;;;;;;26.50;14.05;;;;;;;5.37;100.00;100034.81;10377291;28;20060;-77
2023/12/09 00:22:24;;;;;;;25.65;12.65;;;;;;;5.50;100.00;100025.09;10395033;28;20037;-78
2023/12/09 00:27:28;;;;;;;23.75;12.93;;;;;;;5.49;100.00;100026.91;10390404;28;20041;-79
2023/12/09 00:32:32;;;;;;;23.52;13.05;;;;;;;5.48;100.00;100021.66;10417376;28;20124;-79
2023/12/09 00:37:35;;;;;;;27.08;13.32;;;;;;;5.43;100.00;100027.31;10401470;28;20045;-79
2023/12/09 00:42:38;;;;;;;24.95;11.77;;;;;;;5.31;100.00;100037.91;10401848;28;20042;-78
2023/12/09 00:47:42;;;;;;;21.23;10.63;;;;;;;5.43;100.00;100032.63;10403525;28;20050;-79
2023/12/09 00:52:46;;;;;;;22.77;11.93;;;;;;;5.50;100.00;100038.41;10374766;28;20474;-78
2023/12/09 00:57:49;;;;;;;26.55;11.73;;;;;;;5.50;100.00;100038.41;10379341;28;20068;-79
2023/12/09 01:02:53;;;;;;;20.67;11.60;;;;;;;5.46;100.00;100044.91;10394988;28;20072;-79
2023/12/09 01:07:57;;;;;;;24.52;9.88;;;;;;;5.51;100.00;100042.78;10391378;28;20042;-79
2023/12/09 01:13:00;;;;;;;18.17;9.45;;;;;;;5.61;100.00;100043.03;10405858;28;20288;-78
2023/12/09 01:18:04;;;;;;;23.15;10.00;;;;;;;5.38;100.00;100047.22;10406914;28;20476;-78
2023/12/09 01:23:08;;;;;;;18.02;9.30;;;;;;;5.50;100.00;100044.59;10394858;28;20052;-79
2023/12/09 01:28:11;;;;;;;20.80;9.95;;;;;;;5.52;100.00;100047.16;10401553;28;20128;-78
2023/12/09 01:33:15;;;;;;;19.45;8.73;;;;;;;5.47;100.00;100049.28;10398575;28;20038;-79
2023/12/09 01:38:18;;;;;;;14.77;8.30;;;;;;;5.53;99.81;100043.53;10392711;28;20050;-79
2023/12/09 01:43:22;;;;;;;19.23;8.25;;;;;;;5.60;99.68;100049.34;10391901;28;20052;-79
2023/12/09 01:48:26;;;;;;;15.68;8.35;;;;;;;5.59;98.55;100044.94;10399391;28;20047;-79
2023/12/09 01:53:30;;;;;;;12.95;8.18;;;;;;;5.72;98.39;100049.34;10397259;28;20049;-78
2023/12/09 01:58:35;;;;;;;14.93;8.20;;;;;;;5.61;97.40;100051.88;10390311;28;20048;-79
2023/12/09 02:03:40;;;;;;;14.18;7.82;;;;;;;5.57;97.86;100046.84;10387677;28;20516;-79
2023/12/09 02:08:43;;;;;;;18.98;8.07;;;;;;;5.72;96.79;100041.38;10399947;28;20179;-78
2023/12/09 02:14:04;;;;;;;14.02;6.50;;;;;;;5.63;96.46;100038.47;10387539;28;20052;-79
2023/12/09 02:19:12;;;;;;;18.23;7.53;;;;;;;5.56;97.54;100035.34;10403188;28;20041;-79
2023/12/09 02:24:17;;;;;;;19.02;7.05;;;;;;;5.59;97.04;100042.28;10399202;28;20108;-79
2023/12/09 02:29:22;;;;;;;14.93;6.15;;;;;;;5.43;98.64;100043.28;10404927;28;20128;-78
2023/12/09 02:34:26;;;;;;;17.33;7.57;;;;;;;5.38;99.51;100037.41;10390238;28;20049;-79
2023/12/09 02:39:31;;;;;;;20.95;7.35;;;;;;;5.43;100.00;100040.63;10407373;28;20406;-80
2023/12/09 02:44:36;;;;;;;15.15;7.47;;;;;;;5.51;100.00;100037.44;10409728;28;20080;-79
2023/12/09 02:49:38;;;;;;;12.88;7.22;;;;;;;5.50;99.98;100028.59;10397612;28;20534;-79
2023/12/09 02:54:43;;;;;;;15.65;6.88;;;;;;;5.55;99.82;100027.47;10398149;28;20057;-79
2023/12/09 02:59:46;;;;;;;13.38;5.75;;;;;;;5.32;100.00;100028.94;10398872;28;20058;-80
2023/12/09 03:04:49;;;;;;;16.33;6.80;;;;;;;5.54;99.48;100017.75;10393601;28;20041;-79
2023/12/09 03:09:53;;;;;;;14.77;8.00;;;;;;;5.66;100.00;100015.13;10412538;28;20586;-79
2023/12/09 03:14:56;;;;;;;15.32;6.60;;;;;;;5.69;100.00;100006.94;10401837;28;20038;-79
2023/12/09 03:19:59;;;;;;;15.85;6.50;;;;;;;5.75;100.00;100000.34;10402859;28;20116;-79
2023/12/09 03:25:05;;;;;;;13.55;6.05;;;;;;;5.73;99.93;99999.56;10398028;28;20050;-79
2023/12/09 03:30:08;;;;;;;17.77;7.10;;;;;;;5.73;99.23;99987.13;10389022;28;20049;-79
2023/12/09 03:35:12;;;;;;;14.43;5.43;;;;;;;5.71;99.15;99983.69;10400290;28;20132;-78
2023/12/09 03:40:16;;;;;;;13.50;6.38;;;;;;;5.70;99.30;99979.34;10401290;28;20052;-78
2023/12/09 03:45:19;;;;;;;11.52;5.70;;;;;;;5.74;99.17;99979.97;10391208;28;20400;-78
2023/12/09 03:50:22;;;;;;;18.83;5.50;;;;;;;5.73;98.51;99983.59;10399973;28;20072;-78
2023/12/09 03:55:27;;;;;;;11.05;5.13;;;;;;;5.74;98.30;99977.31;10398099;28;20117;-78
2023/12/09 04:00:30;;;;;;;21.63;5.57;;;;;;;5.62;98.38;99972.78;10399508;28;20144;-78
2023/12/09 04:05:33;;;;;;;16.20;4.93;;;;;;;5.80;97.66;99968.03;10389905;28;20054;-78
2023/12/09 04:10:37;;;;;;;14.32;5.35;;;;;;;5.84;97.23;99965.09;10400596;28;20041;-78
2023/12/09 04:15:40;;;;;;;16.85;4.30;;;;;;;5.77;97.83;99966.44;10401646;28;20052;-79
2023/12/09 04:20:43;;;;;;;13.15;5.35;;;;;;;5.82;97.07;99958.16;10397867;28;20664;-77
2023/12/09 04:25:48;;;;;;;13.07;4.47;;;;;;;5.81;97.06;99964.41;10376563;28;20054;-79
2023/12/09 04:30:51;;;;;;;22.25;5.15;;;;;;;5.79;98.29;99953.00;10376168;28;20044;-78
2023/12/09 04:35:54;;;;;;;10.20;4.80;;;;;;;5.77;97.44;99949.59;10387644;28;20057;-79
2023/12/09 04:40:58;;;;;;;14.43;4.78;;;;;;;5.61;97.43;99949.78;10398030;28;20567;-78
2023/12/09 04:46:01;;;;;;;12.35;4.32;;;;;;;5.70;97.03;99943.81;10394954;28;20083;-78
2023/12/09 04:51:04;;;;;;;10.80;4.32;;;;;;;5.60;97.17;99932.94;10411991;28;20072;-78
2023/12/09 04:56:10;;;;;;;14.13;4.80;;;;;;;5.52;97.30;99935.28;10446977;28;20053;-78
2023/12/09 05:01:13;;;;;;;12.48;4.03;;;;;;;5.40;97.68;99936.94;10406462;28;20077;-79
2023/12/09 05:06:16;;;;;;;10.70;4.30;;;;;;;5.38;97.77;99943.34;10394185;28;20049;-79
2023/12/09 05:11:20;;;;;;;11.43;3.97;;;;;;;5.33;97.62;99927.66;10395424;28;20145;-78
2023/12/09 05:16:23;;;;;;;10.65;3.72;;;;;;;5.37;97.74;99923.81;10387908;28;20046;-78
2023/12/09 05:21:26;;;;;;;11.32;3.45;;;;;;;5.33;96.83;99929.47;10374286;28;20046;-78
2023/12/09 05:26:39;;;;;;;11.90;3.83;;;;;;;5.37;97.13;99925.63;10390835;28;20111;-79
2023/12/09 05:31:42;;;;;;;10.77;4.50;;;;;;;5.41;96.42;99929.81;10409916;28;20517;-79
2023/12/09 05:36:46;;;;;;;13.88;3.90;;;;;;;5.47;96.27;99934.72;10430121;28;20057;-78
2023/12/09 05:41:51;;;;;;;12.60;3.95;;;;;;;5.49;96.05;99924.81;10420141;28;20045;-80
2023/12/09 05:46:54;;;;;;;15.95;3.72;;;;;;;5.60;95.27;99916.94;10419857;28;20256;-79
2023/12/09 05:51:57;;;;;;;18.75;3.90;;;;;;;5.70;94.53;99915.38;10403138;28;20041;-79
2023/12/09 05:57:02;;;;;;;11.38;3.17;;;;;;;5.66;94.33;99905.03;10401900;28;20042;-78
2023/12/09 06:02:05;;;;;;;13.57;3.72;;;;;;;5.62;93.81;99920.38;10406904;28;20132;-79
2023/12/09 06:07:08;;;;;;;10.98;3.47;;;;;;;5.68;93.71;99913.78;10410218;28;20076;-78
2023/12/09 06:12:12;;;;;;;12.68;3.70;;;;;;;5.79;93.38;99921.00;10393454;28;20065;-78
2023/12/09 06:17:15;;;;;;;11.32;4.00;;;;;;;5.83;92.76;99918.03;10395959;28;20046;-79
2023/12/09 06:22:18;;;;;;;7.18;2.58;;;;;;;5.79;92.11;99927.22;10403739;28;20056;-78
2023/12/09 06:27:23;;;;;;;7.88;3.03;;;;;;;5.89;91.33;99916.75;10401012;28;20042;-78
2023/12/09 06:32:26;;;;;;;19.10;3.35;;;;;;;5.83;90.68;99923.38;10403529;28;20056;-79
2023/12/09 06:37:30;;;;;;;11.73;4.82;;;;;;;5.95;90.27;99909.22;10389647;28;20041;-79
2023/12/09 06:42:36;;;;;;;8.55;3.22;;;;;;;5.93;91.16;99911.13;10396084;28;20074;-78
2023/12/09 06:47:40;;;;;;;12.15;3.38;;;;;;;5.77;90.83;99899.81;10381395;28;20172;-77
2023/12/09 06:52:43;;;;;;;10.63;3.22;;;;;;;5.66;90.77;99899.69;10379275;28;20052;-79
2023/12/09 06:57:47;;;;;;;13.20;3.60;;;;;;;5.54;91.17;99887.19;10388236;28;20045;-79
2023/12/09 07:02:50;;;;;;;11.93;3.55;;;;;;;5.42;91.68;99888.88;10403304;28;20046;-79
2023/12/09 07:08:01;;;;;;;12.85;2.90;;;;;;;5.25;92.30;99890.88;10418600;28;20030;-78
2023/12/09 07:13:06;;;;;;;12.55;2.80;;;;;;;5.19;92.25;99879.78;10415316;28;20056;-79
2023/12/09 07:18:09;;;;;;;13.65;3.83;;;;;;;5.13;93.07;99882.84;10404094;28;20559;-79
2023/12/09 07:23:14;;;;;;;13.75;4.38;;;;;;;5.01;93.44;99874.69;10391573;28;20049;-78
2023/12/09 07:28:18;;;;;;;15.85;4.90;;;;;;;4.95;93.55;99871.56;10396776;28;20049;-79
2023/12/09 07:33:21;;;;;;;15.55;6.68;;;;;;;4.78;93.34;99870.88;10395024;28;20044;-79
2023/12/09 07:38:24;;;;;;;22.85;7.75;;;;;;;4.56;94.12;99866.09;10402871;28;20048;-79
2023/12/09 07:43:29;;;;;;;22.42;8.55;;;;;;;4.88;96.58;99857.78;10411141;28;20065;-79
2023/12/09 07:48:32;;;;;;;13.70;5.63;;;;;;;5.68;91.72;99855.16;10402494;28;20054;-80
2023/12/09 07:53:35;;;;;;;13.15;5.90;;;;;;;5.70;86.95;99862.09;10406484;28;20132;-80
2023/12/09 07:58:39;;;;;;;14.43;6.20;;;;;;;5.92;85.71;99865.91;10391852;28;20080;-80
2023/12/09 08:03:42;;;;;;;13.52;6.32;;;;;;;6.17;83.89;99859.69;10412966;28;20120;-79
2023/12/09 08:08:46;;;;;;;11.40;7.63;;;;;;;6.16;81.25;99860.66;10397799;28;20124;-79
2023/12/09 08:13:50;;;;;;;10.38;6.28;;;;;;;5.86;81.92;99861.84;10418035;28;20046;-79
2023/12/09 08:18:53;;;;;;;16.05;8.07;;;;;;;5.32;81.60;99854.03;10416739;28;20124;-80
2023/12/09 08:23:57;;;;;;;18.63;11.02;;;;;;;4.76;84.55;99853.28;10418145;28;20069;-79
2023/12/09 08:29:03;;;;;;;21.50;9.40;;;;;;;4.47;87.21;99848.06;10432430;28;20528;-79
2023/12/09 08:34:06;;;;;;;16.77;8.80;;;;;;;4.77;87.42;99845.22;10420720;28;20065;-78
2023/12/09 08:39:09;;;;;;;17.05;9.32;;;;;;;4.90;84.76;99825.78;10427144;28;20103;-78
2023/12/09 08:44:14;;;;;;;20.63;11.15;;;;;;;5.20;83.52;99814.91;10410071;28;20041;-78
2023/12/09 08:49:17;;;;;;;17.88;10.10;;;;;;;5.32;82.15;99815.88;10415067;28;20141;-80
2023/12/09 08:54:20;;;;;;;19.63;10.95;;;;;;;5.63;81.30;99809.31;10448685;28;20053;-81
2023/12/09 08:59:25;;;;;;;19.67;10.35;;;;;;;5.91;80.30;99824.22;10416826;28;20044;-79
2023/12/09 09:04:28;;;;;;;16.42;10.00;;;;;;;5.92;79.06;99816.13;10409833;28;20110;-79
2023/12/09 09:09:31;;;;;;;17.52;9.98;;;;;;;5.32;79.58;99806.09;10414123;28;20519;-79
2023/12/09 09:14:36;;;;;;;17.52;11.07;;;;;;;4.90;82.10;99801.81;10409803;28;20041;-79
2023/12/09 09:19:39;;;;;;;17.33;10.52;;;;;;;4.43;84.60;99809.31;10441246;28;20052;-79
2023/12/09 09:24:43;;;;;;;22.02;12.25;;;;;;;4.30;86.21;99795.94;10418917;28;20423;-80
2023/12/09 09:29:47;;;;;;;19.50;10.07;;;;;;;4.58;86.14;99796.81;10410817;28;20041;-79
2023/12/09 09:34:50;;;;;;;20.08;11.35;;;;;;;4.71;85.88;99788.88;10411747;28;20046;-80
2023/12/09 09:39:53;;;;;;;20.73;11.15;;;;;;;4.86;85.34;99784.38;10415284;28;20049;-79
2023/12/09 09:45:08;;;;;;;15.27;8.25;;;;;;;4.59;85.68;99777.25;10411165;28;20110;-79
2023/12/09 09:50:12;;;;;;;14.98;9.18;;;;;;;4.56;86.24;99759.69;10414259;28;20077;-79
2023/12/09 09:55:15;;;;;;;24.27;10.07;;;;;;;4.46;87.22;99742.63;10412249;28;20052;-79
2023/12/09 10:00:21;;;;;;;15.88;9.38;;;;;;;5.26;84.56;99729.28;10406744;28;20062;-80
2023/12/09 10:05:25;;;;;;;13.07;8.07;;;;;;;5.87;80.00;99711.63;10422777;28;20369;-80
2023/12/09 10:10:29;;;;;;;13.38;8.60;;;;;;;6.79;76.03;99704.78;10416112;28;20088;-80
2023/12/09 10:15:33;;;;;;;17.67;7.70;;;;;;;7.21;75.27;99693.63;10425565;28;20105;-80
2023/12/09 10:20:36;;;;;;;11.80;7.88;;;;;;;7.36;72.95;99679.09;10419256;28;20045;-80
2023/12/09 10:25:41;;;;;;;12.25;7.00;;;;;;;7.22;72.82;99649.94;10415762;28;20125;-80
2023/12/09 10:30:46;;;;;;;10.25;6.68;;;;;;;7.81;71.87;99635.44;10413634;28;20128;-79
2023/12/09 10:35:49;;;;;;;12.68;6.82;;;;;;;7.97;70.21;99614.47;10393981;28;20042;-79
2023/12/09 10:40:53;;;;;;;8.07;6.03;;;;;;;8.03;70.58;99600.59;10393624;28;20080;-80
2023/12/09 10:45:58;;;;;;;13.15;6.40;;;;;;;7.80;72.35;99583.78;10395927;28;20064;-79
2023/12/09 10:51:01;;;;;;;10.25;5.80;;;;;;;7.83;72.82;99590.69;10400749;28;20140;-80
2023/12/09 10:56:06;;;;;;;9.30;3.10;;;;;;;8.57;71.33;99582.75;10406847;28;20429;-80
2023/12/09 11:01:11;;;;;;;6.07;1.95;;;;;;;9.11;69.21;99564.72;10406020;28;20056;-79
2023/12/09 11:06:16;;;;;;;5.50;2.00;;;;;;;10.46;63.54;99549.78;10413617;28;20156;-80
2023/12/09 11:11:19;;;;;;;5.22;1.40;;;;;;;10.08;63.08;99532.72;10413884;28;20077;-80
2023/12/09 11:16:24;;;;;;;3.78;1.50;;;;;;;9.57;63.37;99517.69;10405128;28;20083;-80
2023/12/09 11:21:28;;;;;;;4.68;1.63;;;;;;;9.29;66.15;99509.47;10388226;28;20045;-81
2023/12/09 11:26:33;;;;;;;2.75;1.55;;;;;;;8.93;67.47;99482.28;10389621;28;20038;-79
2023/12/09 11:31:40;;;;;;;4.82;1.50;;;;;;;8.08;70.53;99466.47;10406777;28;20036;-80
2023/12/09 11:36:44;;;;;;;4.40;1.45;;;;;;;7.72;73.05;99444.56;10414808;28;20054;-79
2023/12/09 11:41:49;;;;;;;4.50;1.67;;;;;;;7.45;74.07;99440.53;10403817;28;20064;-79
2023/12/09 11:46:53;;;;;;;5.03;1.95;;;;;;;7.49;74.22;99420.59;10397528;28;20072;-78
2023/12/09 11:51:57;;;;;;;7.15;2.20;;;;;;;7.09;75.67;99408.84;10412551;28;20042;-79
2023/12/09 11:57:00;;;;;;;2.80;1.58;;;;;;;7.20;75.75;99409.66;10414084;28;20555;-79
2023/12/09 12:02:05;;;;;;;6.93;1.92;;;;;;;7.38;75.05;99391.25;10419852;28;20636;-80
2023/12/09 12:07:08;;;;;;;9.68;2.05;;;;;;;7.12;75.23;99372.03;10403818;28;20045;-80
2023/12/09 12:12:11;;;;;;;3.17;1.52;;;;;;;7.28;75.08;99367.13;10404441;28;20042;-79
2023/12/09 12:17:17;;;;;;;5.63;2.30;;;;;;;7.23;75.06;99347.97;10404801;28;20049;-79
2023/12/09 12:22:20;;;;;;;9.38;3.25;;;;;;;7.09;75.44;99332.25;10398544;28;20053;-79
2023/12/09 12:27:23;;;;;;;7.15;2.95;;;;;;;6.88;75.94;99324.19;10412624;28;20049;-78
2023/12/09 12:32:30;;;;;;;8.60;3.13;;;;;;;7.05;75.10;99315.66;10388290;28;20056;-79
2023/12/09 12:37:33;;;;;;;8.05;2.85;;;;;;;7.15;75.13;99294.34;10410934;28;20054;-79
2023/12/09 12:42:37;;;;;;;7.43;3.03;;;;;;;7.00;75.57;99263.59;10394908;28;20034;-79
2023/12/09 12:47:41;;;;;;;11.13;3.30;;;;;;;6.89;75.96;99258.31;10408805;28;20076;-79
2023/12/09 12:52:45;;;;;;;7.15;3.00;;;;;;;6.85;76.11;99255.00;10412150;28;20072;-79
2023/12/09 12:57:48;;;;;;;10.35;3.13;;;;;;;6.88;76.15;99256.59;10424910;28;20042;-79
2023/12/09 13:02:53;;;;;;;8.35;2.80;;;;;;;6.74;76.33;99250.56;10417848;28;20057;-79
2023/12/09 13:07:56;;;;;;;9.57;2.65;;;;;;;6.69;76.94;99220.75;10409815;28;20127;-80
2023/12/09 13:12:59;;;;;;;6.13;3.08;;;;;;;6.74;76.69;99213.19;10411623;28;20042;-81
2023/12/09 13:18:04;;;;;;;5.80;3.15;;;;;;;6.59;76.67;99185.97;10414258;28;20144;-79
2023/12/09 13:23:08;;;;;;;9.02;4.25;;;;;;;6.46;77.11;99171.13;10423093;28;20045;-79
2023/12/09 13:28:11;;;;;;;11.77;4.53;;;;;;;6.25;78.58;99155.91;10411962;28;20053;-79
2023/12/09 13:33:15;;;;;;;8.52;4.78;;;;;;;6.46;77.96;99145.28;10415287;28;20050;-81
2023/12/09 13:38:19;;;;;;;12.23;6.03;;;;;;;6.38;78.02;99137.94;10416792;28;20042;-79
2023/12/09 13:43:22;;;;;;;8.77;4.07;;;;;;;6.35;78.91;99118.69;10438681;28;20097;-79
2023/12/09 13:48:26;;;;;;;6.85;3.88;;;;;;;6.30;79.20;99113.72;10403181;28;20038;-78
2023/12/09 13:53:29;;;;;;;9.32;3.95;;;;;;;6.42;78.72;99081.66;10395895;28;20045;-78
2023/12/09 13:58:32;;;;;;;10.13;3.47;;;;;;;6.51;78.47;99080.88;10395738;28;20053;-77
2023/12/09 14:03:37;;;;;;;9.80;4.85;;;;;;;6.50;78.79;99060.50;10403343;28;20037;-78
2023/12/09 14:08:41;;;;;;;14.10;5.15;;;;;;;6.36;79.84;99041.22;10401670;28;20042;-77
2023/12/09 14:13:44;;;;;;;9.25;4.40;;;;;;;6.54;79.07;99019.25;10380336;28;20096;-77
2023/12/09 14:18:48;;;;;;;8.05;3.70;;;;;;;6.69;78.96;99023.28;10394514;28;20443;-77
2023/12/09 14:23:53;;;;;;;9.25;3.88;;;;;;;6.81;78.32;98997.34;10386456;28;20151;-80
2023/12/09 14:28:56;;;;;;;8.77;4.22;;;;;;;6.58;79.58;98976.19;10396284;28;20041;-77
2023/12/09 14:34:00;;;;;;;9.48;4.72;;;;;;;6.56;79.80;98972.81;10392063;28;20413;-78
2023/12/09 14:39:06;;;;;;;15.90;5.63;;;;;;;6.42;81.04;98956.28;10401236;28;20042;-78
2023/12/09 14:44:09;;;;;;;10.32;6.00;;;;;;;6.23;82.46;98947.22;10402487;28;20048;-77
2023/12/09 14:49:13;;;;;;;11.40;4.60;;;;;;;6.27;82.18;98932.63;10385771;28;20139;-79
2023/12/09 14:54:17;;;;;;;14.93;5.35;;;;;;;6.10;83.12;98906.59;10377765;28;20038;-79
2023/12/09 14:59:23;;;;;;;11.00;5.50;;;;;;;6.36;82.42;98891.84;10399894;28;20136;-78
2023/12/09 15:04:27;;;;;;;12.15;5.85;;;;;;;6.25;83.85;98878.59;10393213;28;20070;-79
2023/12/09 15:09:30;;;;;;;10.77;4.78;;;;;;;6.30;84.54;98864.88;10408255;28;20052;-81
2023/12/09 15:14:33;;;;;;;17.75;6.57;;;;;;;6.33;86.01;98859.25;10385229;28;20049;-80
2023/12/09 15:19:38;;;;;;;16.48;6.05;;;;;;;6.22;87.13;98852.19;10388366;28;20061;-79
2023/12/09 15:24:42;;;;;;;12.50;5.95;;;;;;;6.13;89.44;98831.69;10419876;28;20042;-79
2023/12/09 15:29:45;;;;;;;10.57;5.13;;;;;;;5.87;91.46;98832.13;10406333;28;20136;-79
2023/12/09 15:34:49;;;;;;;12.65;6.65;;;;;;;5.91;94.55;98800.72;10394866;28;20105;-79
2023/12/09 15:39:53;;;;;;;14.05;6.70;;;;;;;5.71;95.87;98784.63;10409306;28;20045;-79
2023/12/09 15:44:56;;;;;;;15.60;6.75;;;;;;;5.56;96.14;98758.47;10413654;28;20132;-80
2023/12/09 15:50:01;;;;;;;15.10;6.00;;;;;;;5.52;96.45;98755.22;10427453;28;20053;-80
2023/12/09 15:55:05;;;;;;;15.32;6.28;;;;;;;5.63;98.64;98747.16;10394964;28;20105;-77
2023/12/09 16:00:10;;;;;;;10.35;5.55;;;;;;;5.38;100.00;98719.13;10414470;28;20065;-79
2023/12/09 16:05:14;;;;;;;12.82;5.82;;;;;;;5.31;100.00;98702.00;10408729;28;20046;-78
2023/12/09 16:10:18;;;;;;;17.75;5.65;;;;;;;5.16;100.00;98677.53;10431429;28;20053;-78
2023/12/09 16:15:21;;;;;;;15.23;5.97;;;;;;;4.97;100.00;98642.81;10436800;28;20065;-78
2023/12/09 16:20:26;;;;;;;15.30;5.53;;;;;;;5.09;100.00;98628.47;10434125;28;20060;-78
2023/12/09 16:25:29;;;;;;;12.27;5.63;;;;;;;5.12;100.00;98612.22;10427863;28;20068;-78
2023/12/09 16:30:32;;;;;;;16.95;5.72;;;;;;;5.13;100.00;98578.47;10453717;28;20654;-78
2023/12/09 16:35:36;;;;;;;11.20;4.38;;;;;;;5.13;100.00;98576.66;10446911;28;20042;-78
2023/12/09 16:40:39;;;;;;;12.50;5.13;;;;;;;5.05;100.00;98560.53;10404400;28;20127;-79
2023/12/09 16:45:42;;;;;;;11.75;5.50;;;;;;;5.16;100.00;98536.47;10413724;28;20133;-79
2023/12/09 16:50:47;;;;;;;8.80;5.20;;;;;;;5.14;100.00;98524.28;10410908;28;20049;-80
2023/12/09 16:55:50;;;;;;;16.33;5.97;;;;;;;5.03;100.00;98494.13;10393771;28;20046;-78
2023/12/09 17:00:53;;;;;;;13.40;6.15;;;;;;;5.14;100.00;98489.69;10413934;28;20057;-80
2023/12/09 17:05:58;;;;;;;11.55;5.30;;;;;;;4.85;100.00;98471.75;10405418;28;20103;-79
2023/12/09 17:11:01;;;;;;;14.93;6.55;;;;;;;5.02;100.00;98473.81;10401762;28;20069;-79
2023/12/09 17:16:05;;;;;;;9.15;5.00;;;;;;;5.11;100.00;98466.00;10387643;28;20068;-78
2023/12/09 17:21:09;;;;;;;8.23;4.25;;;;;;;5.15;100.00;98459.41;10401262;28;20054;-79
2023/12/09 17:26:12;;;;;;;5.28;2.65;;;;;;;4.92;100.00;98451.63;10389116;28;20037;-79
2023/12/09 17:31:15;;;;;;;11.80;4.15;;;;;;;5.17;100.00;98439.66;10399402;28;20045;-78
2023/12/09 17:36:22;;;;;;;6.93;4.07;;;;;;;4.93;100.00;98440.00;10426737;28;20066;-80
2023/12/09 17:41:26;;;;;;;3.30;2.17;;;;;;;4.96;100.00;98404.28;10434119;28;20073;-78
2023/12/09 17:46:29;;;;;;;7.18;2.85;;;;;;;4.93;100.00;98381.47;10431327;28;20072;-78
2023/12/09 17:51:33;;;;;;;6.32;3.80;;;;;;;5.03;100.00;98384.19;10427164;28;20503;-79
2023/12/09 17:56:36;;;;;;;4.85;2.58;;;;;;;4.87;100.00;98370.53;10430209;28;20067;-79
2023/12/09 18:01:41;;;;;;;7.70;2.70;;;;;;;4.94;100.00;98369.88;10395079;28;20057;-79
2023/12/09 18:06:45;;;;;;;5.78;3.08;;;;;;;5.16;100.00;98358.16;10427254;28;20057;-78
2023/12/09 18:11:48;;;;;;;2.92;2.20;;;;;;;4.92;100.00;98347.03;10404401;28;20390;-79
2023/12/09 18:16:52;;;;;;;4.75;2.33;;;;;;;4.84;100.00;98348.56;10406410;28;20044;-79
2023/12/09 18:21:56;;;;;;;2.42;1.67;;;;;;;4.84;100.00;98337.91;10407943;28;20381;-79
2023/12/09 18:26:59;;;;;;;2.55;2.00;;;;;;;4.77;100.00;98312.84;10402382;28;20121;-79
2023/12/09 18:32:02;;;;;;;5.05;1.45;;;;;;;4.64;100.00;98293.66;10418431;28;20054;-79
2023/12/09 18:37:07;;;;;;;5.18;1.90;;;;;;;4.75;100.00;98276.72;10407100;28;20505;-78
2023/12/09 18:42:10;;;;;;;2.97;1.77;;;;;;;4.64;100.00;98264.41;10421187;28;20045;-78
2023/12/09 18:47:13;;;;;;;3.55;1.48;;;;;;;4.35;100.00;98248.41;10392045;28;20042;-78
2023/12/09 18:52:18;;;;;;;1.95;0.85;;;;;;;4.60;100.00;98231.91;10393686;28;20073;-80
2023/12/09 18:57:21;;;;;;;3.80;1.13;;;;;;;4.68;100.00;98225.91;10394994;28;20042;-78
2023/12/09 19:02:24;;;;;;;1.00;0.88;;;;;;;4.64;100.00;98255.59;10393556;28;20053;-78
2023/12/09 19:07:28;;;;;;;1.75;0.88;;;;;;;4.46;100.00;98237.63;10397221;28;20961;-79
2023/12/09 19:12:31;;;;;;;1.63;1.13;;;;;;;4.73;100.00;98230.81;10406781;28;20053;-79
2023/12/09 19:17:34;;;;;;;1.20;1.10;;;;;;;4.68;100.00;98238.38;10405494;28;20042;-81
2023/12/09 19:22:39;;;;;;;0.95;0.82;;;;;;;4.67;100.00;98247.34;10421075;28;20049;-79
2023/12/09 19:27:42;;;;;;;1.33;1.20;;;;;;;4.70;100.00;98239.91;10381624;28;20057;-79
2023/12/09 19:32:45;;;;;;;0.98;0.77;;;;;;;4.84;100.00;98244.81;10384828;28;20049;-79
2023/12/09 19:37:50;;;;;;;2.40;0.90;;;;;;;4.91;100.00;98228.28;10403481;28;20065;-79
2023/12/09 19:42:55;;;;;;;1.17;0.90;;;;;;;5.04;100.00;98232.34;10408203;28;20041;-80
2023/12/09 19:47:59;;;;;;;0.70;0.70;;;;;;;4.89;100.00;98223.13;10402190;28;20034;-79
2023/12/09 19:53:04;;;;;;;1.60;0.85;;;;;;;4.79;100.00;98201.81;10415388;28;20115;-79
2023/12/09 19:58:07;;;;;;;1.35;1.08;;;;;;;4.80;100.00;98214.16;10451694;28;20026;-79
2023/12/09 20:03:11;;;;;;;0.90;0.73;;;;;;;4.74;100.00;98213.88;10463767;28;20496;-79
2023/12/09 20:08:15;;;;;;;1.42;0.80;;;;;;;4.95;100.00;98229.69;10453423;28;20030;-79
2023/12/09 20:13:19;;;;;;;1.15;0.70;;;;;;;4.87;100.00;98201.13;10465103;28;20053;-80
2023/12/09 20:18:22;;;;;;;0.80;0.75;;;;;;;4.81;100.00;98217.66;10480257;28;20049;-79
2023/12/09 20:23:27;;;;;;;1.23;0.90;;;;;;;4.82;100.00;98198.88;10463983;28;20056;-79
2023/12/09 20:28:30;;;;;;;2.65;1.58;;;;;;;4.98;100.00;98197.47;10462917;28;20107;-79
2023/12/09 20:33:35;;;;;;;1.13;1.00;;;;;;;4.99;100.00;98213.34;10436708;28;20045;-79
2023/12/09 20:38:39;;;;;;;1.60;1.50;;;;;;;5.05;100.00;98207.44;10450730;28;20103;-80
2023/12/09 20:43:43;;;;;;;1.23;1.13;;;;;;;5.15;100.00;98202.09;10441245;28;20091;-79
2023/12/09 20:48:46;;;;;;;1.77;1.20;;;;;;;5.08;100.00;98214.31;10441151;28;20033;-79
2023/12/09 20:53:51;;;;;;;1.30;1.20;;;;;;;5.17;100.00;98213.44;10455430;28;20069;-78
2023/12/09 20:58:54;;;;;;;2.92;0.90;;;;;;;5.10;100.00;98214.16;10452995;28;20038;-79
2023/12/09 21:03:58;;;;;;;1.50;1.30;;;;;;;5.06;100.00;98216.25;10440196;28;20100;-78
2023/12/09 21:09:03;;;;;;;1.70;1.40;;;;;;;5.25;100.00;98223.38;10472819;28;20043;-78
2023/12/09 21:14:07;;;;;;;1.50;1.40;;;;;;;5.26;100.00;98228.53;10468442;28;20064;-78
2023/12/09 21:19:11;;;;;;;1.70;1.45;;;;;;;5.27;100.00;98227.59;10467350;28;20029;-78
2023/12/09 21:24:16;;;;;;;1.33;1.23;;;;;;;5.36;100.00;98244.50;10470395;28;20650;-78
2023/12/09 21:29:20;;;;;;;1.95;1.50;;;;;;;5.36;100.00;98246.34;10455172;28;20120;-78
2023/12/09 21:34:23;;;;;;;2.45;2.17;;;;;;;5.35;100.00;98260.63;10454505;28;20055;-78
2023/12/09 21:39:27;;;;;;;2.65;2.45;;;;;;;5.33;100.00;98270.59;10476810;28;20072;-77
2023/12/09 21:44:30;;;;;;;5.75;4.03;;;;;;;5.59;100.00;98284.94;10464541;28;20475;-77
2023/12/09 21:49:33;;;;;;;6.53;4.05;;;;;;;5.73;100.00;98297.84;10459051;28;20037;-78
2023/12/09 21:54:38;;;;;;;6.15;4.78;;;;;;;5.90;100.00;98290.91;10459403;28;20130;-78
2023/12/09 21:59:41;;;;;;;6.22;4.53;;;;;;;5.83;100.00;98292.47;10451859;28;20037;-77
2023/12/09 22:04:44;;;;;;;6.43;4.25;;;;;;;5.90;100.00;98298.06;10440485;28;20131;-80
2023/12/09 22:09:49;;;;;;;10.55;5.03;;;;;;;6.27;100.00;98302.53;10449484;28;20099;-79
2023/12/09 22:14:52;;;;;;;9.30;6.93;;;;;;;6.46;100.00;98306.94;10453841;28;20041;-80
2023/12/09 22:19:55;;;;;;;11.10;7.53;;;;;;;6.40;100.00;98305.72;10473163;28;20067;-80
2023/12/09 22:25:00;;;;;;;9.13;6.30;;;;;;;6.39;100.00;98339.53;10471224;28;20113;-79
2023/12/09 22:30:04;;;;;;;26.42;11.43;;;;;;;6.43;100.00;98337.41;10474839;28;20038;-78
2023/12/09 22:35:08;;;;;;;22.13;13.02;;;;;;;6.66;100.00;98353.00;10458723;28;20099;-79
2023/12/09 22:40:13;;;;;;;28.50;14.25;;;;;;;6.74;100.00;98372.63;10471598;28;20435;-80
2023/12/09 22:45:16;;;;;;;28.25;14.43;;;;;;;6.87;100.00;98382.97;10464292;28;20111;-79
2023/12/09 22:50:19;;;;;;;34.33;13.50;;;;;;;6.72;100.00;98401.31;10471851;28;20095;-80
2023/12/09 22:55:24;;;;;;;25.92;10.45;;;;;;;6.87;100.00;98409.66;10465663;28;20117;-79
2023/12/09 23:00:31;;;;;;;21.42;8.80;;;;;;;6.94;100.00;98413.44;10463430;28;20028;-80
2023/12/09 23:05:37;;;;;;;22.40;8.10;;;;;;;6.72;100.00;98441.31;10467863;28;20529;-79
2023/12/09 23:10:42;;;;;;;18.30;7.72;;;;;;;7.02;100.00;98440.22;10460862;28;20180;-79
2023/12/09 23:15:45;;;;;;;26.30;8.00;;;;;;;7.09;100.00;98458.31;10440287;28;20064;-78
2023/12/09 23:20:48;;;;;;;24.83;5.07;;;;;;;7.07;100.00;98466.44;10464768;28;20053;-79
2023/12/09 23:25:53;;;;;;;26.23;5.28;;;;;;;7.03;100.00;98479.25;10468366;28;20132;-79